Time;durP1;ratioP1;P1;durP2;ratioP2;P2;SDS_P1;SDS_P2;PMS_P1;PMS_P2;Temp;Humidity;BMP_temperature;BMP_pressure;BME280_temperature;BME280_humidity;BME280_pressure;Samples;Min_cycle;Max_cycle;Signal;HPM_P1;HPM_P2
2022/11/28 00:00:37;;;;;;;18.23;16.07;;;;;21.10;100010.00;;;;2079627;28;20210;-49
2022/11/28 00:01:42;;;;;;;18.07;15.83;;;;;21.10;100002.00;;;;2079102;28;20301;-51
2022/11/28 00:02:42;;;;;;;17.67;15.25;;;;;21.10;100013.00;;;;2077625;28;20267;-51
2022/11/28 00:03:42;;;;;;;16.77;14.93;;;;;21.10;100011.00;;;;2078644;28;20225;-52
2022/11/28 00:04:43;;;;;;;17.17;14.80;;;;;21.10;100019.00;;;;2079485;28;20282;-51
2022/11/28 00:05:43;;;;;;;16.73;14.57;;;;;21.10;100012.00;;;;2079313;28;20216;-51
2022/11/28 00:06:44;;;;;;;16.73;15.03;;;;;21.10;100010.00;;;;2079347;28;20209;-51
2022/11/28 00:07:45;;;;;;;16.23;13.98;;;;;21.10;100015.00;;;;2079439;28;20218;-51
2022/11/28 00:08:45;;;;;;;16.00;14.40;;;;;21.10;100011.00;;;;2079608;28;20717;-49
2022/11/28 00:09:46;;;;;;;16.17;14.13;;;;;21.10;100004.00;;;;2078677;28;20214;-51
2022/11/28 00:10:46;;;;;;;15.47;13.87;;;;;21.10;100007.00;;;;2079431;28;20236;-51
2022/11/28 00:11:47;;;;;;;16.00;14.07;;;;;21.10;100003.00;;;;2079068;28;20958;-49
2022/11/28 00:12:47;;;;;;;16.97;13.13;;;;;21.10;100008.00;;;;2083495;28;20689;-50
2022/11/28 00:13:48;;;;;;;14.27;12.77;;;;;21.10;100015.00;;;;2087451;28;20486;-50
2022/11/28 00:14:48;;;;;;;16.07;13.40;;;;;21.10;100010.00;;;;2087436;28;20217;-48
2022/11/28 00:15:56;;;;;;;14.63;12.97;;;;;21.10;100002.00;;;;2087840;28;20309;-51
2022/11/28 00:16:56;;;;;;;15.23;13.05;;;;;21.10;100010.00;;;;2086018;28;20225;-51
2022/11/28 00:17:56;;;;;;;14.40;12.40;;;;;21.00;100002.00;;;;2079282;28;20220;-49
2022/11/28 00:18:58;;;;;;;17.73;13.80;;;;;21.00;99999.00;;;;2079449;28;20237;-51
2022/11/28 00:19:58;;;;;;;15.00;13.40;;;;;21.00;100001.00;;;;2079126;28;20217;-51
2022/11/28 00:21:04;;;;;;;15.50;13.07;;;;;21.00;100011.00;;;;2079648;28;20298;-51
2022/11/28 00:22:05;;;;;;;13.45;12.05;;;;;21.00;100001.00;;;;2078701;28;20690;-51
2022/11/28 00:23:05;;;;;;;12.53;11.23;;;;;21.00;100010.00;;;;2087221;28;20220;-51
2022/11/28 00:24:05;;;;;;;14.90;12.27;;;;;21.00;100007.00;;;;2086569;28;20213;-51
2022/11/28 00:25:06;;;;;;;13.53;12.07;;;;;21.00;100017.00;;;;2087068;28;20298;-50
2022/11/28 00:26:11;;;;;;;13.10;11.50;;;;;21.00;100016.00;;;;2087010;28;20208;-51
2022/11/28 00:27:12;;;;;;;12.98;10.73;;;;;21.00;100013.00;;;;2087782;28;20217;-50
2022/11/28 00:28:12;;;;;;;12.47;11.10;;;;;21.00;100012.00;;;;2087164;28;20247;-51
2022/11/28 00:29:12;;;;;;;13.27;11.40;;;;;21.00;100011.00;;;;2086801;28;20216;-49
2022/11/28 00:30:13;;;;;;;11.87;10.70;;;;;21.00;100017.00;;;;2087862;28;20221;-49
2022/11/28 00:31:17;;;;;;;12.23;10.73;;;;;21.00;100017.00;;;;2087982;28;20232;-51
2022/11/28 00:32:17;;;;;;;12.80;10.52;;;;;21.00;100018.00;;;;2086345;28;20574;-51
2022/11/28 00:33:18;;;;;;;12.03;10.40;;;;;21.00;100013.00;;;;2087875;28;20224;-50
2022/11/28 00:34:18;;;;;;;11.90;10.70;;;;;21.00;100009.00;;;;2087751;28;20220;-51
2022/11/28 00:35:18;;;;;;;13.53;10.70;;;;;21.00;100010.00;;;;2087644;28;20633;-50
2022/11/28 00:36:19;;;;;;;10.47;9.37;;;;;21.00;100013.00;;;;2087885;28;20655;-49
2022/11/28 00:37:19;;;;;;;12.53;10.73;;;;;21.00;100008.00;;;;2087786;28;20540;-51
2022/11/28 00:38:19;;;;;;;11.13;9.93;;;;;21.00;100007.00;;;;2087298;28;20227;-50
2022/11/28 00:39:20;;;;;;;10.87;9.63;;;;;20.90;100017.00;;;;2087513;28;20221;-50
2022/11/28 00:40:21;;;;;;;11.50;10.30;;;;;20.90;100010.00;;;;2087675;28;20231;-51
2022/11/28 00:41:23;;;;;;;11.43;9.80;;;;;20.90;100015.00;;;;2087817;28;20236;-50
2022/11/28 00:42:23;;;;;;;11.32;9.05;;;;;20.90;100011.00;;;;2086446;28;20276;-50
2022/11/28 00:43:23;;;;;;;11.83;9.60;;;;;21.00;100001.00;;;;2087886;28;20209;-51
2022/11/28 00:44:24;;;;;;;10.13;9.03;;;;;21.00;100003.00;;;;2087504;28;20283;-50
2022/11/28 00:45:24;;;;;;;11.67;9.23;;;;;20.90;100003.00;;;;2087860;28;20209;-51
2022/11/28 00:46:25;;;;;;;10.60;9.50;;;;;20.90;99995.00;;;;2087897;28;20216;-50
2022/11/28 00:47:25;;;;;;;10.40;8.70;;;;;20.90;100004.00;;;;2087794;28;20296;-51
2022/11/28 00:48:25;;;;;;;9.80;8.80;;;;;20.90;100003.00;;;;2087817;28;20209;-51
2022/11/28 00:49:26;;;;;;;9.20;8.30;;;;;20.90;100003.00;;;;2086499;28;20217;-50
2022/11/28 00:50:26;;;;;;;9.57;8.50;;;;;21.00;100008.00;;;;2086912;28;20216;-51
2022/11/28 00:51:28;;;;;;;9.10;8.10;;;;;20.90;99999.00;;;;2086532;28;20233;-51
2022/11/28 00:52:31;;;;;;;9.73;8.45;;;;;20.90;99995.00;;;;2086072;28;20797;-49
2022/11/28 00:53:31;;;;;;;9.55;8.55;;;;;20.90;100003.00;;;;2087765;28;20608;-51
2022/11/28 00:54:31;;;;;;;9.37;8.43;;;;;20.90;99993.00;;;;2087689;28;20220;-51
2022/11/28 00:55:32;;;;;;;9.30;8.30;;;;;20.90;99997.00;;;;2087819;28;20209;-50
2022/11/28 00:56:37;;;;;;;8.37;7.40;;;;;20.90;99993.00;;;;2087771;28;20292;-50
2022/11/28 00:57:37;;;;;;;9.35;8.13;;;;;20.90;99988.00;;;;2087810;28;20307;-50
2022/11/28 00:58:38;;;;;;;9.20;7.40;;;;;20.90;99986.00;;;;2087795;28;20213;-50
2022/11/28 00:59:38;;;;;;;8.27;7.47;;;;;20.90;99991.00;;;;2087290;28;20213;-50
2022/11/28 01:00:38;;;;;;;8.97;7.20;;;;;20.90;99984.00;;;;2087571;28;20219;-49
2022/11/28 01:01:40;;;;;;;8.53;7.60;;;;;20.90;99981.00;;;;2087633;28;20213;-51
2022/11/28 01:02:40;;;;;;;9.00;7.63;;;;;20.90;99975.00;;;;2086804;28;20689;-50
2022/11/28 01:03:40;;;;;;;8.67;7.73;;;;;20.90;99969.00;;;;2087872;28;20220;-50
2022/11/28 01:04:41;;;;;;;8.87;7.97;;;;;20.90;99969.00;;;;2087906;28;20319;-49
2022/11/28 01:05:42;;;;;;;8.20;7.40;;;;;20.90;99973.00;;;;2087577;28;20693;-50
2022/11/28 01:06:47;;;;;;;7.63;6.60;;;;;20.90;99967.00;;;;2087727;28;20271;-49
2022/11/28 01:07:47;;;;;;;7.43;6.63;;;;;20.90;99968.00;;;;2087692;28;20466;-49
2022/11/28 01:08:48;;;;;;;7.80;7.00;;;;;20.90;99958.00;;;;2087849;28;20862;-51
2022/11/28 01:09:48;;;;;;;8.10;6.90;;;;;20.90;99950.00;;;;2087447;28;20225;-51
2022/11/28 01:10:48;;;;;;;7.00;6.30;;;;;20.90;99959.00;;;;2087303;28;20672;-51
2022/11/28 01:11:50;;;;;;;7.97;7.10;;;;;20.90;99942.00;;;;2086753;28;20689;-49
2022/11/28 01:12:50;;;;;;;8.65;7.60;;;;;20.90;99942.00;;;;2087777;28;20259;-50
2022/11/28 01:13:53;;;;;;;7.77;6.80;;;;;20.80;99946.00;;;;2087602;28;20274;-50
2022/11/28 01:14:54;;;;;;;8.70;7.53;;;;;20.90;99955.00;;;;2087479;28;20224;-50
2022/11/28 01:15:55;;;;;;;7.53;6.55;;;;;20.90;99953.00;;;;2087042;28;20205;-50
2022/11/28 01:16:55;;;;;;;6.83;5.83;;;;;20.80;99947.00;;;;2087041;28;20712;-51
2022/11/28 01:17:56;;;;;;;7.67;6.63;;;;;20.80;99948.00;;;;2086718;28;20208;-51
2022/11/28 01:18:56;;;;;;;7.77;6.90;;;;;20.80;99950.00;;;;2086664;28;20212;-51
2022/11/28 01:19:56;;;;;;;7.23;6.30;;;;;20.80;99952.00;;;;2087042;28;21048;-50
2022/11/28 01:20:57;;;;;;;6.33;5.73;;;;;20.80;99944.00;;;;2086509;28;20213;-50
2022/11/28 01:21:57;;;;;;;9.23;7.07;;;;;20.80;99947.00;;;;2086238;28;20262;-49
2022/11/28 01:22:57;;;;;;;6.87;6.20;;;;;20.80;99946.00;;;;2086773;28;20216;-50
2022/11/28 01:23:58;;;;;;;9.57;7.30;;;;;20.80;99948.00;;;;2087007;28;20233;-49
2022/11/28 01:24:58;;;;;;;6.97;5.80;;;;;20.80;99945.00;;;;2087024;28;20213;-50
2022/11/28 01:25:59;;;;;;;7.10;6.40;;;;;20.80;99950.00;;;;2086876;28;20220;-51
2022/11/28 01:27:00;;;;;;;6.57;5.97;;;;;20.80;99947.00;;;;2086897;28;20213;-49
2022/11/28 01:28:00;;;;;;;7.27;6.57;;;;;20.80;99948.00;;;;2085836;28;20291;-49
2022/11/28 01:29:00;;;;;;;6.60;5.90;;;;;20.80;99942.00;;;;2078761;28;20217;-49
2022/11/28 01:30:01;;;;;;;6.90;5.87;;;;;20.80;99945.00;;;;2079357;28;20224;-50
2022/11/28 01:31:06;;;;;;;7.77;6.30;;;;;20.70;99951.00;;;;2079224;28;20765;-50
2022/11/28 01:32:06;;;;;;;8.15;6.22;;;;;20.80;99947.00;;;;2081393;28;20251;-51
2022/11/28 01:33:07;;;;;;;6.53;5.93;;;;;20.80;99946.00;;;;2086919;28;20664;-51
2022/11/28 01:34:07;;;;;;;6.07;5.47;;;;;20.80;99946.00;;;;2087355;28;20570;-51
2022/11/28 01:35:08;;;;;;;6.80;5.90;;;;;20.80;99949.00;;;;2087582;28;20712;-51
2022/11/28 01:36:08;;;;;;;6.77;6.10;;;;;20.80;99939.00;;;;2087606;28;20630;-51
2022/11/28 01:37:09;;;;;;;7.00;6.30;;;;;20.80;99947.00;;;;2087379;28;20220;-51
2022/11/28 01:38:09;;;;;;;6.90;6.20;;;;;20.80;99951.00;;;;2087144;28;20456;-50
2022/11/28 01:39:11;;;;;;;8.80;5.97;;;;;20.80;99948.00;;;;2087406;28;20208;-50
2022/11/28 01:40:11;;;;;;;6.15;5.53;;;;;20.80;99944.00;;;;2087325;28;20223;-51
2022/11/28 01:41:12;;;;;;;6.20;5.60;;;;;20.80;99949.00;;;;2087673;28;20205;-51
2022/11/28 01:42:16;;;;;;;6.27;5.27;;;;;20.70;99945.00;;;;2086138;28;20599;-49
2022/11/28 01:43:17;;;;;;;6.15;5.50;;;;;20.70;99938.00;;;;2087603;28;20323;-50
2022/11/28 01:44:17;;;;;;;6.00;5.33;;;;;20.70;99934.00;;;;2087516;28;20232;-51
2022/11/28 01:45:17;;;;;;;5.50;4.77;;;;;20.70;99943.00;;;;2087632;28;20298;-51
2022/11/28 01:46:18;;;;;;;6.20;5.33;;;;;20.80;99938.00;;;;2087595;28;20298;-51
2022/11/28 01:47:20;;;;;;;5.90;5.10;;;;;20.80;99939.00;;;;2087282;28;20213;-51
2022/11/28 01:48:30;;;;;;;5.38;4.85;;;;;20.70;99933.00;;;;2086721;28;20821;-50
2022/11/28 01:49:34;;;;;;;7.70;5.18;;;;;20.80;99937.00;;;;2086341;28;20291;-51
2022/11/28 01:50:35;;;;;;;5.22;4.72;;;;;20.80;99931.00;;;;2086609;28;20216;-51
2022/11/28 01:51:35;;;;;;;5.20;4.73;;;;;20.70;99925.00;;;;2087324;28;20221;-50
2022/11/28 01:52:37;;;;;;;6.97;5.20;;;;;20.70;99928.00;;;;2085798;28;20228;-50
2022/11/28 01:53:40;;;;;;;5.13;4.63;;;;;20.80;99931.00;;;;2085937;28;20247;-50
2022/11/28 01:54:41;;;;;;;5.40;4.90;;;;;20.80;99909.00;;;;2086106;28;21034;-51
2022/11/28 01:55:45;;;;;;;4.70;4.20;;;;;20.70;99927.00;;;;2079925;28;20213;-50
2022/11/28 01:56:50;;;;;;;5.25;4.75;;;;;20.70;99929.00;;;;2078590;28;20217;-50
2022/11/28 01:57:50;;;;;;;5.15;4.15;;;;;20.80;99924.00;;;;2078498;28;20224;-50
2022/11/28 01:58:54;;;;;;;5.13;4.70;;;;;20.70;99934.00;;;;2078626;28;20295;-50
2022/11/28 02:00:21;;;;;;;5.07;4.57;;;;;20.70;99943.00;;;;2078312;28;20222;-51
2022/11/28 02:01:23;;;;;;;5.95;4.95;;;;;20.70;99928.00;;;;2081891;28;20589;-50
2022/11/28 02:02:32;;;;;;;5.50;4.80;;;;;20.70;99932.00;;;;2085417;28;20223;-51
2022/11/28 02:03:45;;;;;;;5.63;5.13;;;;;20.70;99926.00;;;;2077958;28;20228;-50
2022/11/28 02:04:45;;;;;;;5.32;4.55;;;;;20.70;99925.00;;;;2073899;28;20202;-50
2022/11/28 02:05:46;;;;;;;5.23;4.67;;;;;20.70;99924.00;;;;2086743;28;20716;-51
2022/11/28 02:06:46;;;;;;;4.50;4.00;;;;;20.70;99923.00;;;;2086719;28;20247;-51
2022/11/28 02:07:47;;;;;;;4.60;4.20;;;;;20.70;99927.00;;;;2080195;28;20457;-49
2022/11/28 02:08:51;;;;;;;5.60;4.17;;;;;20.70;99929.00;;;;2078789;28;20202;-51
2022/11/28 02:09:51;;;;;;;4.57;4.10;;;;;20.70;99923.00;;;;2083628;28;20293;-49
2022/11/28 02:11:10;;;;;;;4.43;4.03;;;;;20.70;99922.00;;;;2087404;28;20672;-50
2022/11/28 02:12:25;;;;;;;4.60;4.20;;;;;20.70;99930.00;;;;2086264;28;20262;-50
2022/11/28 02:14:04;;;;;;;5.25;4.22;;;;;20.70;99924.00;;;;2086709;28;20219;-50
2022/11/28 02:15:22;;;;;;;5.25;4.78;;;;;20.70;99918.00;;;;2068365;28;20234;-50
2022/11/28 02:16:32;;;;;;;5.25;4.00;;;;;20.60;99925.00;;;;2069145;28;20221;-51
2022/11/28 02:18:07;;;;;;;5.15;4.50;;;;;20.70;99914.00;;;;2070595;28;20224;-52
2022/11/28 02:19:24;;;;;;;4.45;4.05;;;;;20.70;99908.00;;;;2085610;28;20605;-50
2022/11/28 02:20:52;;;;;;;4.65;3.92;;;;;20.60;99925.00;;;;2086559;28;20217;-51
2022/11/28 02:22:00;;;;;;;5.75;3.67;;;;;20.60;99917.00;;;;2085934;28;20247;-51
2022/11/28 02:23:06;;;;;;;3.92;3.55;;;;;20.70;99919.00;;;;2086262;28;20217;-49
2022/11/28 02:24:43;;;;;;;4.75;4.10;;;;;20.60;99900.00;;;;2082094;28;20308;-48
2022/11/28 02:26:01;;;;;;;4.95;4.15;;;;;20.60;99904.00;;;;2086290;28;20275;-51
2022/11/28 02:27:22;;;;;;;4.15;3.75;;;;;20.60;99895.00;;;;2086509;28;20684;-49
2022/11/28 02:28:49;;;;;;;4.32;3.92;;;;;20.60;99899.00;;;;2080885;28;20317;-49
2022/11/28 02:29:56;;;;;;;4.40;3.70;;;;;20.60;99903.00;;;;2079259;28;20259;-51
2022/11/28 02:31:15;;;;;;;4.28;3.45;;;;;20.70;99897.00;;;;2070828;28;20224;-50
2022/11/28 02:32:15;;;;;;;3.70;3.30;;;;;20.60;99898.00;;;;2077387;28;20697;-50
2022/11/28 02:33:26;;;;;;;4.30;3.57;;;;;20.60;99892.00;;;;2078586;28;20210;-51
2022/11/28 02:34:54;;;;;;;4.18;3.78;;;;;20.60;99903.00;;;;2077987;28;20252;-50
2022/11/28 02:36:09;;;;;;;3.50;3.20;;;;;20.60;99893.00;;;;2085533;28;22302;-49
2022/11/28 02:37:41;;;;;;;4.20;3.30;;;;;20.60;99895.00;;;;2086332;28;20236;-51
2022/11/28 02:38:50;;;;;;;4.45;3.80;;;;;20.60;99892.00;;;;2085922;28;20223;-49
2022/11/28 02:39:59;;;;;;;4.03;3.67;;;;;20.60;99889.00;;;;2086300;28;20267;-51
2022/11/28 02:41:05;;;;;;;3.75;3.35;;;;;20.60;99895.00;;;;2087025;28;20232;-50
2022/11/28 02:42:11;;;;;;;3.58;3.25;;;;;20.60;99892.00;;;;2085551;28;20228;-50
2022/11/28 02:43:21;;;;;;;4.10;3.42;;;;;20.60;99887.00;;;;2078133;28;20301;-49
2022/11/28 02:44:24;;;;;;;3.92;3.53;;;;;20.60;99894.00;;;;2073063;28;21115;-51
2022/11/28 02:45:44;;;;;;;4.20;3.80;;;;;20.60;99888.00;;;;2077940;28;20225;-51
2022/11/28 02:46:45;;;;;;;5.10;3.50;;;;;20.60;99894.00;;;;2084489;28;20205;-50
2022/11/28 02:47:49;;;;;;;4.27;3.80;;;;;20.60;99891.00;;;;2086292;28;20715;-50
2022/11/28 02:48:54;;;;;;;4.18;3.80;;;;;20.60;99898.00;;;;2086386;28;20240;-50
2022/11/28 02:50:09;;;;;;;3.35;3.05;;;;;20.60;99899.00;;;;2082659;28;20696;-51
2022/11/28 02:51:23;;;;;;;4.20;3.80;;;;;20.60;99900.00;;;;2074982;28;20343;-51
2022/11/28 02:52:30;;;;;;;4.70;3.80;;;;;20.60;99896.00;;;;2073060;28;20223;-50
2022/11/28 02:53:30;;;;;;;3.75;3.35;;;;;20.60;99852.00;;;;2072185;28;20206;-51
2022/11/28 02:54:31;;;;;;;3.97;3.57;;;;;20.60;99884.00;;;;2070436;28;20241;-49
2022/11/28 02:55:31;;;;;;;3.90;3.50;;;;;20.60;99888.00;;;;2069993;28;20611;-49
2022/11/28 02:56:32;;;;;;;3.57;3.27;;;;;20.60;99889.00;;;;2070025;28;20679;-48
2022/11/28 02:57:40;;;;;;;4.27;3.60;;;;;20.60;99890.00;;;;2078981;28;20908;-50
2022/11/28 02:58:40;;;;;;;3.30;3.00;;;;;20.60;99887.00;;;;2078264;28;20221;-49
2022/11/28 02:59:40;;;;;;;4.40;3.90;;;;;20.60;99892.00;;;;2077963;28;20209;-49
2022/11/28 03:00:42;;;;;;;3.73;3.43;;;;;20.60;99889.00;;;;2077703;28;20210;-49
2022/11/28 03:01:42;;;;;;;3.92;3.55;;;;;20.50;99895.00;;;;2078179;28;20214;-49
2022/11/28 03:02:43;;;;;;;4.37;3.97;;;;;20.60;99894.00;;;;2077132;28;20236;-51
2022/11/28 03:03:55;;;;;;;3.73;3.13;;;;;20.60;99903.00;;;;2078097;28;20213;-50
2022/11/28 03:05:14;;;;;;;4.35;3.60;;;;;20.60;99904.00;;;;2075780;28;20241;-50
2022/11/28 03:06:33;;;;;;;3.28;2.97;;;;;20.60;99906.00;;;;2080038;28;20217;-51
2022/11/28 03:07:59;;;;;;;3.55;3.25;;;;;20.60;99911.00;;;;2077936;28;20274;-49
2022/11/28 03:09:30;;;;;;;3.45;3.13;;;;;20.60;99907.00;;;;2068878;28;20225;-51
2022/11/28 03:10:43;;;;;;;4.15;3.70;;;;;20.60;99920.00;;;;2071671;28;20682;-49
2022/11/28 03:11:53;;;;;;;3.28;2.97;;;;;20.60;99904.00;;;;2074342;28;20228;-51
2022/11/28 03:13:24;;;;;;;4.10;3.50;;;;;20.60;99924.00;;;;2079984;28;20222;-50
2022/11/28 03:14:47;;;;;;;3.60;2.95;;;;;20.60;99903.00;;;;2085760;28;20204;-50
2022/11/28 03:16:19;;;;;;;3.58;3.28;;;;;20.50;99905.00;;;;2074935;28;20287;-51
2022/11/28 03:17:31;;;;;;;3.30;3.00;;;;;20.50;99903.00;;;;2081458;28;20424;-49
2022/11/28 03:18:36;;;;;;;3.72;3.30;;;;;20.50;99908.00;;;;2084535;28;20223;-49
2022/11/28 03:19:38;;;;;;;3.30;3.00;;;;;20.50;99909.00;;;;2079337;28;20213;-50
2022/11/28 03:20:41;;;;;;;3.20;2.80;;;;;20.60;99912.00;;;;2085472;28;20716;-49
2022/11/28 03:21:57;;;;;;;3.17;2.97;;;;;20.60;99910.00;;;;2085704;28;20299;-49
2022/11/28 03:23:22;;;;;;;3.50;3.10;;;;;20.50;99903.00;;;;2086105;28;20266;-50
2022/11/28 03:24:49;;;;;;;3.30;3.00;;;;;20.50;99912.00;;;;2086320;28;20219;-50
2022/11/28 03:26:14;;;;;;;3.53;3.22;;;;;20.50;99910.00;;;;2077835;28;20200;-51
2022/11/28 03:27:24;;;;;;;3.30;3.00;;;;;20.50;99920.00;;;;2068497;28;20212;-51
2022/11/28 03:28:34;;;;;;;3.38;3.00;;;;;20.50;99912.00;;;;2074387;28;20227;-51
2022/11/28 03:29:40;;;;;;;2.95;2.67;;;;;20.50;99910.00;;;;2078914;28;20766;-51
2022/11/28 03:30:44;;;;;;;4.00;3.22;;;;;20.50;99913.00;;;;2085657;28;20868;-49
2022/11/28 03:31:48;;;;;;;2.92;2.72;;;;;20.50;99913.00;;;;2085262;28;20474;-50
2022/11/28 03:32:50;;;;;;;3.53;3.00;;;;;20.50;99913.00;;;;2085896;28;20216;-50
2022/11/28 03:33:52;;;;;;;3.30;3.00;;;;;20.50;99919.00;;;;2085996;28;20605;-51
2022/11/28 03:34:58;;;;;;;3.92;2.80;;;;;20.50;99918.00;;;;2086034;28;20241;-50
2022/11/28 03:36:06;;;;;;;3.50;3.20;;;;;20.50;99912.00;;;;2085960;28;20716;-49
2022/11/28 03:37:09;;;;;;;3.55;3.17;;;;;20.50;99908.00;;;;2086163;28;20213;-51
2022/11/28 03:38:21;;;;;;;3.30;3.00;;;;;20.50;99916.00;;;;2084905;28;20212;-51
2022/11/28 03:39:23;;;;;;;3.60;3.30;;;;;20.50;99910.00;;;;2079415;28;20272;-51
2022/11/28 03:40:29;;;;;;;3.40;3.08;;;;;20.50;99911.00;;;;2079436;28;20300;-51
2022/11/28 03:41:54;;;;;;;3.35;2.95;;;;;20.50;99905.00;;;;2086060;28;20205;-50
2022/11/28 03:43:00;;;;;;;2.88;2.67;;;;;20.50;99896.00;;;;2077593;28;20263;-51
2022/11/28 03:44:01;;;;;;;2.85;2.65;;;;;20.50;99894.00;;;;2078299;28;20217;-50
2022/11/28 03:45:17;;;;;;;3.23;2.90;;;;;20.50;99904.00;;;;2086324;28;20266;-50
2022/11/28 03:46:18;;;;;;;3.65;3.33;;;;;20.50;99896.00;;;;2081382;28;20232;-51
2022/11/28 03:47:19;;;;;;;3.80;3.45;;;;;20.50;99909.00;;;;2087617;28;20701;-51
2022/11/28 03:48:28;;;;;;;3.03;2.73;;;;;20.50;99895.00;;;;2087548;28;20209;-50
2022/11/28 03:49:31;;;;;;;2.85;2.65;;;;;20.50;99906.00;;;;2080492;28;20256;-51
2022/11/28 03:50:47;;;;;;;3.60;2.92;;;;;20.50;99899.00;;;;2079424;28;20333;-50
2022/11/28 03:51:54;;;;;;;3.10;2.80;;;;;20.50;99875.00;;;;2086868;28;20259;-50
2022/11/28 03:52:58;;;;;;;3.30;2.97;;;;;20.50;99891.00;;;;2087182;28;20216;-48
2022/11/28 03:54:01;;;;;;;2.55;2.35;;;;;20.40;99898.00;;;;2087220;28;20677;-50
2022/11/28 03:55:04;;;;;;;3.20;2.90;;;;;20.40;99899.00;;;;2087623;28;20217;-50
2022/11/28 03:56:19;;;;;;;2.50;2.30;;;;;20.50;99895.00;;;;2071327;28;20297;-50
2022/11/28 03:57:34;;;;;;;4.43;2.67;;;;;20.50;99894.00;;;;2070310;28;20244;-51
2022/11/28 03:59:08;;;;;;;3.05;2.80;;;;;20.50;99898.00;;;;2085675;28;20220;-51
2022/11/28 04:00:10;;;;;;;3.00;2.70;;;;;20.50;99897.00;;;;2061712;28;20294;-50
2022/11/28 04:01:21;;;;;;;3.25;2.95;;;;;20.40;99893.00;;;;2072064;28;20717;-50
2022/11/28 04:02:38;;;;;;;2.78;2.50;;;;;20.50;99898.00;;;;2070107;28;20247;-51
2022/11/28 04:03:51;;;;;;;3.10;2.80;;;;;20.50;99895.00;;;;2072879;28;20571;-50
2022/11/28 04:05:04;;;;;;;3.17;2.88;;;;;20.50;99887.00;;;;2063883;28;20214;-50
2022/11/28 04:06:21;;;;;;;2.50;2.30;;;;;20.50;99894.00;;;;2072587;28;20303;-51
2022/11/28 04:07:24;;;;;;;2.90;2.70;;;;;20.40;99895.00;;;;2076189;28;20295;-49
2022/11/28 04:08:34;;;;;;;4.40;2.78;;;;;20.40;99893.00;;;;2087217;28;20223;-50
2022/11/28 04:09:46;;;;;;;3.00;2.70;;;;;20.40;99888.00;;;;2086948;28;20223;-51
2022/11/28 04:11:03;;;;;;;2.83;2.58;;;;;20.40;99894.00;;;;2087299;28;20215;-51
2022/11/28 04:12:07;;;;;;;3.88;2.85;;;;;20.40;99893.00;;;;2078072;28;20221;-51
2022/11/28 04:13:28;;;;;;;3.20;2.95;;;;;20.40;99890.00;;;;2062960;28;20314;-51
2022/11/28 04:14:33;;;;;;;3.33;2.67;;;;;20.40;99889.00;;;;2059647;28;20683;-51
2022/11/28 04:15:57;;;;;;;3.55;2.40;;;;;20.40;99886.00;;;;2064527;28;20563;-50
2022/11/28 04:17:05;;;;;;;3.08;2.80;;;;;20.40;99883.00;;;;2079495;28;20303;-50
2022/11/28 04:18:15;;;;;;;2.70;2.47;;;;;20.40;99884.00;;;;2086867;28;20220;-50
2022/11/28 04:19:21;;;;;;;3.30;2.83;;;;;20.40;99875.00;;;;2076982;28;20302;-50
2022/11/28 04:20:27;;;;;;;2.95;2.60;;;;;20.40;99886.00;;;;2070682;28;20683;-49
2022/11/28 04:21:28;;;;;;;2.92;2.70;;;;;20.40;99892.00;;;;2078668;28;20214;-49
2022/11/28 04:22:47;;;;;;;3.33;2.90;;;;;20.40;99877.00;;;;2078883;28;20217;-49
2022/11/28 04:23:47;;;;;;;2.72;2.53;;;;;20.40;99875.00;;;;2086141;28;20220;-50
2022/11/28 04:24:53;;;;;;;3.10;2.80;;;;;20.40;99882.00;;;;2087104;28;20216;-48
2022/11/28 04:25:59;;;;;;;2.92;2.63;;;;;20.40;99884.00;;;;2086888;28;20378;-51
2022/11/28 04:27:04;;;;;;;2.92;2.47;;;;;20.40;99875.00;;;;2085815;28;20212;-51
2022/11/28 04:28:07;;;;;;;3.45;2.83;;;;;20.40;99884.00;;;;2071765;28;20254;-50
2022/11/28 04:29:10;;;;;;;2.88;2.58;;;;;20.40;99885.00;;;;2063684;28;20199;-51
2022/11/28 04:30:10;;;;;;;2.67;2.47;;;;;20.40;99881.00;;;;2071201;28;20211;-49
2022/11/28 04:31:11;;;;;;;3.20;2.60;;;;;20.40;99888.00;;;;2070292;28;20222;-51
2022/11/28 04:32:11;;;;;;;2.97;2.70;;;;;20.40;99884.00;;;;2070183;28;20245;-50
2022/11/28 04:33:12;;;;;;;2.70;2.50;;;;;20.40;99881.00;;;;2071096;28;20222;-50
2022/11/28 04:34:15;;;;;;;3.00;2.50;;;;;20.40;99885.00;;;;2070684;28;20316;-50
2022/11/28 04:35:23;;;;;;;3.97;2.72;;;;;20.40;99890.00;;;;2087347;28;20221;-50
2022/11/28 04:36:23;;;;;;;2.63;2.42;;;;;20.40;99889.00;;;;2086877;28;20213;-50
2022/11/28 04:37:24;;;;;;;3.17;2.87;;;;;20.40;99890.00;;;;2087208;28;20213;-51
2022/11/28 04:38:25;;;;;;;3.13;2.83;;;;;20.40;99890.00;;;;2078822;28;20306;-51
2022/11/28 04:39:26;;;;;;;3.15;2.85;;;;;20.40;99885.00;;;;2078993;28;20726;-51
2022/11/28 04:40:28;;;;;;;3.13;2.47;;;;;20.40;99886.00;;;;2078986;28;20225;-50
2022/11/28 04:41:33;;;;;;;3.25;2.60;;;;;20.30;99887.00;;;;2078812;28;20461;-49
2022/11/28 04:42:39;;;;;;;2.90;2.60;;;;;20.40;99891.00;;;;2079100;28;20220;-51
2022/11/28 04:43:45;;;;;;;3.50;2.97;;;;;20.40;99882.00;;;;2086496;28;20769;-49
2022/11/28 04:44:46;;;;;;;3.13;2.50;;;;;20.40;99890.00;;;;2079969;28;20210;-50
2022/11/28 04:45:54;;;;;;;2.58;2.38;;;;;20.40;99893.00;;;;2087077;28;20205;-50
2022/11/28 04:46:55;;;;;;;4.55;2.67;;;;;20.40;99893.00;;;;2086512;28;20216;-51
2022/11/28 04:47:55;;;;;;;3.00;2.70;;;;;20.40;99881.00;;;;2087203;28;20279;-50
2022/11/28 04:48:56;;;;;;;2.50;2.30;;;;;20.40;99884.00;;;;2078961;28;20210;-49
2022/11/28 04:49:56;;;;;;;2.73;2.53;;;;;20.40;99886.00;;;;2078927;28;20265;-50
2022/11/28 04:51:15;;;;;;;3.10;2.50;;;;;20.40;99884.00;;;;2078769;28;20212;-50
2022/11/28 04:52:19;;;;;;;3.15;2.63;;;;;20.30;99883.00;;;;2080639;28;20225;-49
2022/11/28 04:53:24;;;;;;;3.25;2.30;;;;;20.40;99883.00;;;;2085611;28;20228;-51
2022/11/28 04:54:39;;;;;;;3.22;2.92;;;;;20.40;99885.00;;;;2070950;28;20211;-55
2022/11/28 04:55:47;;;;;;;3.08;2.85;;;;;20.40;99882.00;;;;2079954;28;20275;-51
2022/11/28 04:57:31;;;;;;;2.90;2.70;;;;;20.30;99876.00;;;;2078506;28;20225;-50
2022/11/28 04:58:37;;;;;;;2.70;2.50;;;;;20.30;99883.00;;;;2059516;28;20230;-49
2022/11/28 04:59:37;;;;;;;3.20;2.78;;;;;20.40;99885.00;;;;2074514;28;20203;-52
2022/11/28 05:00:38;;;;;;;2.30;2.10;;;;;20.30;99889.00;;;;2078786;28;20401;-51
2022/11/28 05:01:38;;;;;;;2.90;2.60;;;;;20.40;99887.00;;;;2070600;28;20203;-50
2022/11/28 05:02:39;;;;;;;2.67;2.33;;;;;20.40;99879.00;;;;2069626;28;20272;-51
2022/11/28 05:03:40;;;;;;;2.90;2.60;;;;;20.40;99880.00;;;;2054479;28;20715;-50
2022/11/28 05:04:40;;;;;;;3.30;2.67;;;;;20.40;99880.00;;;;2062908;28;20219;-50
2022/11/28 05:05:50;;;;;;;3.13;2.83;;;;;20.40;99875.00;;;;2068832;28;20264;-50
2022/11/28 05:06:51;;;;;;;2.60;2.40;;;;;20.40;99877.00;;;;2071719;28;20222;-50
2022/11/28 05:07:51;;;;;;;2.47;2.27;;;;;20.30;99875.00;;;;2070569;28;20256;-50
2022/11/28 05:08:52;;;;;;;3.00;2.70;;;;;20.40;99889.00;;;;2070681;28;20241;-49
2022/11/28 05:09:52;;;;;;;2.50;2.30;;;;;20.30;99892.00;;;;2070749;28;20246;-51
2022/11/28 05:10:52;;;;;;;3.50;2.73;;;;;20.30;99897.00;;;;2078968;28;20217;-50
2022/11/28 05:11:53;;;;;;;2.47;2.27;;;;;20.30;99893.00;;;;2077702;28;20222;-50
2022/11/28 05:12:53;;;;;;;2.87;2.27;;;;;20.40;99889.00;;;;2079093;28;20303;-51
2022/11/28 05:13:54;;;;;;;3.37;2.77;;;;;20.40;99895.00;;;;2079271;28;20217;-50
2022/11/28 05:14:54;;;;;;;2.73;2.53;;;;;20.30;99894.00;;;;2079596;28;20213;-51
2022/11/28 05:15:54;;;;;;;3.40;2.50;;;;;20.30;99899.00;;;;2079528;28;20206;-49
2022/11/28 05:16:55;;;;;;;2.90;2.27;;;;;20.30;99902.00;;;;2079442;28;20244;-50
2022/11/28 05:17:55;;;;;;;2.40;2.20;;;;;20.30;99909.00;;;;2079644;28;20217;-49
2022/11/28 05:18:55;;;;;;;2.80;2.60;;;;;20.30;99906.00;;;;2087353;28;20228;-50
2022/11/28 05:19:56;;;;;;;2.60;2.40;;;;;20.30;99916.00;;;;2087870;28;20232;-50
2022/11/28 05:20:57;;;;;;;2.50;2.30;;;;;20.30;99911.00;;;;2087801;28;20212;-51
2022/11/28 05:21:58;;;;;;;3.10;2.63;;;;;20.30;99919.00;;;;2086732;28;20300;-50
2022/11/28 05:22:58;;;;;;;3.00;2.30;;;;;20.30;99915.00;;;;2087189;28;20503;-50
2022/11/28 05:23:58;;;;;;;2.73;2.50;;;;;20.30;99914.00;;;;2086951;28;20519;-50
2022/11/28 05:24:59;;;;;;;2.80;2.60;;;;;20.30;99920.00;;;;2087252;28;20228;-53
2022/11/28 05:26:04;;;;;;;2.57;2.37;;;;;20.30;99914.00;;;;2087835;28;20248;-53
2022/11/28 05:27:04;;;;;;;2.95;2.65;;;;;20.30;99908.00;;;;2087860;28;20221;-51